createdAt,value
2022-11-21T00:01:22.978Z,-4.37
2022-11-21T00:03:50.485Z,-4.43
2022-11-21T00:06:18.709Z,-4.39
2022-11-21T00:08:47.063Z,-4.38
2022-11-21T00:11:14.781Z,-4.37
2022-11-21T00:13:42.909Z,-4.30
2022-11-21T00:16:13.147Z,-4.22
2022-11-21T00:18:40.866Z,-4.22
2022-11-21T00:21:14.462Z,-4.18
2022-11-21T00:23:42.941Z,-4.19
2022-11-21T00:26:12.490Z,-4.15
2022-11-21T00:28:39.965Z,-4.15
2022-11-21T00:31:07.351Z,-4.10
2022-11-21T00:33:39.342Z,-4.02
2022-11-21T00:36:10.702Z,-4.01
2022-11-21T00:38:38.413Z,-3.98
2022-11-21T00:41:06.812Z,-3.94
2022-11-21T00:43:34.517Z,-3.92
2022-11-21T00:46:03.311Z,-3.88
2022-11-21T00:48:31.942Z,-3.83
2022-11-21T00:51:00.954Z,-3.79
2022-11-21T00:53:29.486Z,-3.76
2022-11-21T00:55:56.966Z,-3.71
2022-11-21T00:58:24.438Z,-3.69
2022-11-21T01:00:51.884Z,-3.89
2022-11-21T01:03:19.710Z,-3.64
2022-11-21T01:05:47.272Z,-3.62
2022-11-21T01:08:14.645Z,-3.56
2022-11-21T01:10:42.073Z,-3.55
2022-11-21T01:13:09.457Z,-3.53
2022-11-21T01:15:36.866Z,-3.50
2022-11-21T01:18:04.376Z,-3.48
2022-11-21T01:20:31.799Z,-3.45
2022-11-21T01:22:59.383Z,-3.43
2022-11-21T01:25:26.888Z,-3.44
2022-11-21T01:27:54.412Z,-3.46
2022-11-21T01:30:21.860Z,-3.41
2022-11-21T01:32:50.325Z,-3.43
2022-11-21T01:35:18.335Z,-3.47
2022-11-21T01:37:49.987Z,-3.46
2022-11-21T01:40:17.497Z,-3.52
2022-11-21T01:42:54.717Z,-3.51
2022-11-21T01:45:53.030Z,-3.50
2022-11-21T01:48:28.284Z,-3.62
2022-11-21T01:50:58.629Z,-3.69
2022-11-21T01:53:26.446Z,-3.75
2022-11-21T01:55:54.393Z,-3.80
2022-11-21T01:58:22.997Z,-3.85
2022-11-21T02:00:51.062Z,-3.93
2022-11-21T02:03:25.503Z,-3.89
2022-11-21T02:05:55.411Z,-3.99
2022-11-21T02:08:24.996Z,-4.05
2022-11-21T02:11:10.512Z,-4.02
2022-11-21T02:13:38.725Z,-4.16
2022-11-21T02:16:07.522Z,-4.15
2022-11-21T02:18:35.088Z,-4.22
2022-11-21T02:21:22.024Z,-4.12
2022-11-21T02:24:07.985Z,-4.09
2022-11-21T02:26:36.103Z,-4.21
2022-11-21T02:29:03.640Z,-4.31
2022-11-21T02:31:31.050Z,-4.52
2022-11-21T02:33:58.576Z,-4.43
2022-11-21T02:36:45.845Z,-4.31
2022-11-21T02:39:34.287Z,-4.38
2022-11-21T02:42:02.557Z,-4.45
2022-11-21T02:44:38.894Z,-4.44
2022-11-21T02:47:06.313Z,-4.53
2022-11-21T02:49:57.088Z,-4.40
2022-11-21T02:52:24.537Z,-4.58
2022-11-21T02:54:51.892Z,-4.62
2022-11-21T02:57:19.406Z,-4.64
2022-11-21T02:59:46.797Z,-4.72
2022-11-21T03:02:14.218Z,-4.75
2022-11-21T03:04:41.575Z,-4.74
2022-11-21T03:07:09.069Z,-4.83
2022-11-21T03:09:36.485Z,-4.91
2022-11-21T03:12:09.953Z,-4.81
2022-11-21T03:14:37.879Z,-4.87
2022-11-21T03:17:05.443Z,-4.89
2022-11-21T03:19:32.819Z,-4.89
2022-11-21T03:22:00.287Z,-4.89
2022-11-21T03:24:27.952Z,-4.89
2022-11-21T03:26:55.631Z,-4.89
2022-11-21T03:29:23.045Z,-4.88
2022-11-21T03:31:50.486Z,-4.89
2022-11-21T03:34:17.895Z,-5.02
2022-11-21T03:36:45.299Z,-4.96
2022-11-21T03:39:12.789Z,-5.00
2022-11-21T03:41:40.188Z,-5.02
2022-11-21T03:44:10.700Z,-4.94
2022-11-21T03:46:43.997Z,-4.93
2022-11-21T03:49:11.663Z,-4.93
2022-11-21T03:51:40.042Z,-4.99
2022-11-21T03:54:07.801Z,-4.96
2022-11-21T03:56:35.883Z,-4.90
2022-11-21T03:59:03.939Z,-4.96
2022-11-21T04:01:36.233Z,-4.93
2022-11-21T04:04:04.681Z,-4.88
2022-11-21T04:06:32.509Z,-4.78
2022-11-21T04:08:59.986Z,-4.71
2022-11-21T04:11:27.379Z,-4.59
2022-11-21T04:13:54.805Z,-4.40
2022-11-21T04:16:22.271Z,-4.23
2022-11-21T04:18:49.685Z,-4.06
2022-11-21T04:21:17.144Z,-3.79
2022-11-21T04:23:44.580Z,-3.55
2022-11-21T04:26:12.005Z,-3.32
2022-11-21T04:28:39.563Z,-3.04
2022-11-21T04:31:10.806Z,-2.72
2022-11-21T04:33:39.828Z,-2.44
2022-11-21T04:36:08.545Z,-2.08
2022-11-21T04:38:36.753Z,-1.80
2022-11-21T04:41:05.078Z,-1.40
2022-11-21T04:43:32.777Z,-1.09
2022-11-21T04:46:00.246Z,-0.67
2022-11-21T04:48:27.696Z,-0.19
2022-11-21T04:50:55.166Z,0.20
2022-11-21T04:53:22.501Z,0.67
2022-11-21T04:55:49.897Z,1.11
2022-11-21T04:58:17.353Z,1.42
2022-11-21T05:00:44.690Z,1.87
2022-11-21T05:03:12.216Z,2.20
2022-11-21T05:05:39.656Z,2.55
2022-11-21T05:08:06.950Z,2.91
2022-11-21T05:10:54.529Z,3.36
2022-11-21T05:13:21.997Z,3.71
2022-11-21T05:15:52.642Z,4.01
2022-11-21T05:18:20.239Z,4.40
2022-11-21T05:20:47.565Z,4.73
2022-11-21T05:23:14.940Z,5.09
2022-11-21T05:25:42.284Z,5.42
2022-11-21T05:28:09.859Z,5.81
2022-11-21T05:30:38.013Z,6.21
2022-11-21T05:33:05.639Z,6.60
2022-11-21T05:35:33.018Z,6.83
2022-11-21T05:38:00.542Z,6.98
2022-11-21T05:40:27.922Z,7.27
2022-11-21T05:43:13.596Z,7.50
2022-11-21T05:45:41.032Z,7.86
2022-11-21T05:48:08.504Z,8.22
2022-11-21T05:50:36.978Z,8.45
2022-11-21T05:53:05.441Z,8.75
2022-11-21T05:55:35.068Z,8.94
2022-11-21T05:58:02.931Z,9.28
2022-11-21T06:00:30.449Z,9.43
2022-11-21T06:03:16.300Z,9.68
2022-11-21T06:05:43.907Z,9.91
2022-11-21T06:08:11.358Z,10.15
2022-11-21T06:10:41.629Z,10.38
2022-11-21T06:13:29.316Z,10.68
2022-11-21T06:16:01.345Z,10.79
2022-11-21T06:18:38.005Z,10.97
2022-11-21T06:21:15.721Z,11.11
2022-11-21T06:23:47.419Z,11.23
2022-11-21T06:26:17.198Z,11.63
2022-11-21T06:28:50.346Z,11.86
2022-11-21T06:31:23.710Z,12.10
2022-11-21T06:33:58.970Z,12.23
2022-11-21T06:36:30.240Z,12.54
2022-11-21T06:38:57.882Z,12.54
2022-11-21T06:41:30.390Z,12.51
2022-11-21T06:44:03.523Z,12.67
2022-11-21T06:46:33.725Z,12.79
2022-11-21T06:49:01.345Z,12.91
2022-11-21T06:51:29.116Z,12.77
2022-11-21T06:53:58.562Z,12.88
2022-11-21T06:56:28.330Z,12.87
2022-11-21T06:58:56.278Z,12.82
2022-11-21T07:01:24.033Z,12.73
2022-11-21T07:03:53.573Z,12.53
2022-11-21T07:06:24.209Z,12.08
2022-11-21T07:09:25.538Z,12.03
2022-11-21T07:11:46.418Z,11.40
2022-11-21T07:14:14.131Z,11.28
2022-11-21T07:16:41.805Z,11.07
2022-11-21T07:19:12.622Z,10.96
2022-11-21T07:21:41.895Z,10.54
2022-11-21T07:24:09.314Z,10.31
2022-11-21T07:26:36.733Z,9.94
2022-11-21T07:29:04.261Z,9.67
2022-11-21T07:31:31.958Z,9.35
2022-11-21T07:33:59.493Z,8.92
2022-11-21T07:36:26.950Z,8.58
2022-11-21T07:38:54.421Z,8.14
2022-11-21T07:41:21.842Z,7.68
2022-11-21T07:43:49.257Z,6.90
2022-11-21T07:46:16.655Z,6.71
2022-11-21T07:48:44.191Z,6.23
2022-11-21T07:51:11.721Z,5.96
2022-11-21T07:53:39.151Z,5.63
2022-11-21T07:56:09.691Z,5.33
2022-11-21T07:58:37.452Z,5.11
2022-11-21T08:01:08.176Z,4.89
2022-11-21T08:03:35.688Z,4.35
2022-11-21T08:06:05.147Z,4.24
2022-11-21T08:08:32.767Z,3.95
2022-11-21T08:11:06.566Z,3.85
2022-11-21T08:13:36.876Z,4.05
2022-11-21T08:16:07.248Z,3.90
2022-11-21T08:18:34.976Z,3.35
2022-11-21T08:21:04.110Z,3.04
2022-11-21T08:23:32.455Z,2.66
2022-11-21T08:26:00.002Z,2.46
2022-11-21T08:28:27.657Z,1.94
2022-11-21T08:31:00.820Z,1.93
2022-11-21T08:33:31.457Z,1.73
2022-11-21T08:35:59.466Z,1.62
2022-11-21T08:38:29.544Z,1.49
2022-11-21T08:41:19.572Z,1.39
2022-11-21T08:43:59.376Z,1.28
2022-11-21T08:46:28.465Z,1.08
2022-11-21T08:48:56.277Z,1.11
2022-11-21T08:51:30.571Z,1.05
2022-11-21T08:53:58.857Z,0.75
2022-11-21T08:56:26.605Z,0.74
2022-11-21T08:58:53.958Z,0.64
2022-11-21T09:01:21.432Z,0.54
2022-11-21T09:03:48.872Z,0.49
2022-11-21T09:06:16.210Z,0.44
2022-11-21T09:08:43.783Z,0.25
2022-11-21T09:11:11.171Z,0.22
2022-11-21T09:13:38.497Z,0.17
2022-11-21T09:16:24.072Z,0.18
2022-11-21T09:18:54.480Z,0.28
2022-11-21T09:21:24.618Z,0.09
2022-11-21T09:23:51.932Z,0.08
2022-11-21T09:26:19.341Z,-0.05
2022-11-21T09:28:47.076Z,-0.06
2022-11-21T09:31:14.664Z,-0.37
2022-11-21T09:33:42.000Z,-0.16
2022-11-21T09:36:10.161Z,-0.22
2022-11-21T09:38:37.536Z,-0.17
2022-11-21T09:41:49.877Z,0.00
2022-11-21T09:44:50.216Z,-0.07
2022-11-21T09:47:33.171Z,-0.14
2022-11-21T09:50:13.782Z,-0.31
2022-11-21T09:52:49.776Z,-0.30
2022-11-21T09:55:29.426Z,-0.30
2022-11-21T09:58:00.630Z,-0.46
2022-11-21T10:00:28.230Z,-0.57
2022-11-21T10:02:56.923Z,-0.61
2022-11-21T10:05:40.129Z,-0.57
2022-11-21T10:08:31.076Z,-0.60
2022-11-21T10:11:20.187Z,-0.62
2022-11-21T10:14:43.579Z,-0.67
2022-11-21T10:17:36.698Z,-0.67
2022-11-21T10:20:22.755Z,-0.81
2022-11-21T10:23:12.995Z,-0.95
2022-11-21T10:25:45.500Z,-1.12
2022-11-21T10:28:29.654Z,-1.05
2022-11-21T10:30:59.990Z,-1.15
2022-11-21T10:33:32.455Z,-1.17
2022-11-21T10:36:06.180Z,-1.24
2022-11-21T10:38:40.790Z,-1.26
2022-11-21T10:41:14.452Z,-1.21
2022-11-21T10:44:08.741Z,-1.22
2022-11-21T10:46:36.239Z,-1.34
2022-11-21T10:49:04.907Z,-1.39
2022-11-21T10:52:00.699Z,-1.29
2022-11-21T10:54:33.780Z,-1.42
2022-11-21T10:57:21.629Z,-1.32
2022-11-21T11:00:14.453Z,-1.34
2022-11-21T11:03:00.432Z,-1.44
2022-11-21T11:05:38.164Z,-1.40
2022-11-21T11:08:14.431Z,-1.46
2022-11-21T11:10:46.738Z,-1.55
2022-11-21T11:13:46.989Z,-1.78
2022-11-21T11:16:22.129Z,-1.73
2022-11-21T11:19:17.107Z,-1.68
2022-11-21T11:21:45.984Z,-1.82
2022-11-21T11:24:13.493Z,-1.91
2022-11-21T11:26:59.445Z,-1.90
2022-11-21T11:29:31.075Z,-2.05
2022-11-21T11:32:22.148Z,-1.96
2022-11-21T11:35:04.883Z,-2.02
2022-11-21T11:38:03.744Z,-1.92
2022-11-21T11:40:37.255Z,-2.07
2022-11-21T11:43:47.157Z,-2.04
2022-11-21T11:47:04.288Z,-2.04
2022-11-21T11:49:58.616Z,-2.19
2022-11-21T11:52:32.289Z,-2.17
2022-11-21T11:55:05.591Z,-2.22
2022-11-21T11:57:36.786Z,-2.45
2022-11-21T12:00:19.069Z,-2.38
2022-11-21T12:03:11.258Z,-2.38
2022-11-21T12:05:52.745Z,-2.37
2022-11-21T12:08:42.391Z,-2.29
2022-11-21T12:12:14.190Z,-2.31
2022-11-21T12:15:09.517Z,-2.42
2022-11-21T12:18:25.543Z,-2.36
2022-11-21T12:21:03.450Z,-2.45
2022-11-21T12:23:48.125Z,-2.48
2022-11-21T12:26:34.227Z,-2.63
2022-11-21T12:29:32.297Z,-2.52
2022-11-21T12:32:18.204Z,-2.48
2022-11-21T12:35:08.882Z,-2.56
2022-11-21T12:37:49.007Z,-2.60
2022-11-21T12:40:43.793Z,-2.62
2022-11-21T12:43:38.860Z,-2.59
2022-11-21T12:46:15.081Z,-2.58
2022-11-21T12:49:29.169Z,-2.59
2022-11-21T12:52:52.780Z,-2.54
2022-11-21T12:55:38.082Z,-2.59
2022-11-21T12:58:21.533Z,-2.69
2022-11-21T13:01:27.399Z,-2.78
2022-11-21T13:04:02.530Z,-2.81
2022-11-21T13:06:38.465Z,-2.86
2022-11-21T13:09:12.648Z,-2.88
2022-11-21T13:12:08.018Z,-2.78
2022-11-21T13:14:44.914Z,-2.95
2022-11-21T13:17:24.961Z,-3.00
2022-11-21T13:20:04.362Z,-3.07
2022-11-21T13:22:41.708Z,-3.08
2022-11-21T13:25:30.682Z,-3.07
2022-11-21T13:28:32.833Z,-3.11
2022-11-21T13:31:02.925Z,-3.23
2022-11-21T13:33:36.291Z,-3.17
2022-11-21T13:36:10.603Z,-3.21
2022-11-21T13:38:58.249Z,-3.16
2022-11-21T13:42:20.566Z,-3.14
2022-11-21T13:44:49.683Z,-3.16
2022-11-21T13:47:26.452Z,-3.10
2022-11-21T13:50:07.009Z,-3.14
2022-11-21T13:52:50.462Z,-3.12
2022-11-21T13:55:55.617Z,-3.19
2022-11-21T13:58:29.325Z,-3.47
2022-11-21T14:01:17.749Z,-3.22
2022-11-21T14:04:27.051Z,-3.29
2022-11-21T14:06:54.613Z,-3.41
2022-11-21T14:09:38.844Z,-3.36
2022-11-21T14:12:19.975Z,-3.37
2022-11-21T14:15:08.389Z,-3.36
2022-11-21T14:17:45.249Z,-3.41
2022-11-21T14:20:24.934Z,-3.49
2022-11-21T14:23:00.396Z,-3.53
2022-11-21T14:25:59.904Z,-3.37
2022-11-21T14:28:33.225Z,-3.49
2022-11-21T14:31:02.306Z,-3.43
2022-11-21T14:33:32.313Z,-3.45
2022-11-21T14:36:03.961Z,-3.41
2022-11-21T14:38:36.994Z,-3.58
2022-11-21T14:41:26.217Z,-3.21
2022-11-21T14:43:59.804Z,-3.21
2022-11-21T14:46:28.840Z,-3.01
2022-11-21T14:49:00.102Z,-3.06
2022-11-21T14:51:30.727Z,-3.05
2022-11-21T14:53:58.420Z,-3.13
2022-11-21T14:56:34.559Z,-2.98
2022-11-21T14:59:03.896Z,-3.06
2022-11-21T15:01:33.717Z,-3.07
2022-11-21T15:04:04.539Z,-2.96
2022-11-21T15:06:40.939Z,-3.18
2022-11-21T15:12:08.239Z,-2.84
2022-11-21T15:14:49.426Z,-2.79
2022-11-21T15:17:21.020Z,-2.78
2022-11-21T15:20:11.385Z,-2.72
2022-11-21T15:22:41.873Z,-2.96
2022-11-21T15:25:17.555Z,-2.69
2022-11-21T15:28:05.291Z,-2.63
2022-11-21T15:30:34.464Z,-2.77
2022-11-21T15:33:14.576Z,-2.85
2022-11-21T15:35:44.090Z,-2.73
2022-11-21T15:38:32.432Z,-2.70
2022-11-21T15:41:01.814Z,-2.76
2022-11-21T15:43:48.227Z,-2.69
2022-11-21T15:46:27.936Z,-2.64
2022-11-21T15:48:57.650Z,-2.70
2022-11-21T15:54:27.706Z,-2.73
2022-11-21T15:56:55.513Z,-2.78
2022-11-21T15:59:23.066Z,-2.78
2022-11-21T16:01:50.538Z,-2.81
2022-11-21T16:04:22.479Z,-2.83
2022-11-21T16:06:52.874Z,-2.89
2022-11-21T16:09:20.457Z,-2.84
2022-11-21T16:11:47.956Z,-2.88
2022-11-21T16:14:18.599Z,-2.79
2022-11-21T16:16:47.844Z,-2.90
2022-11-21T16:19:15.627Z,-2.80
2022-11-21T16:21:43.219Z,-2.83
2022-11-21T16:24:10.896Z,-2.95
2022-11-21T16:26:38.340Z,-3.01
2022-11-21T16:29:06.529Z,-2.93
2022-11-21T16:31:34.403Z,-2.93
2022-11-21T16:34:02.063Z,-2.99
2022-11-21T16:36:30.985Z,-2.94
2022-11-21T16:39:05.139Z,-2.99
2022-11-21T16:41:35.581Z,-3.02
2022-11-21T16:44:03.368Z,-3.03
2022-11-21T16:46:30.951Z,-3.03
2022-11-21T16:49:00.717Z,-3.01
2022-11-21T16:51:29.513Z,-3.11
2022-11-21T16:54:01.756Z,-3.16
2022-11-21T16:56:35.530Z,-3.22
2022-11-21T16:59:03.225Z,-3.20
2022-11-21T17:01:30.946Z,-3.21
2022-11-21T17:03:58.686Z,-3.22
2022-11-21T17:06:30.606Z,-3.51
2022-11-21T17:09:10.743Z,-3.16
2022-11-21T17:11:41.401Z,-3.20
2022-11-21T17:14:12.013Z,-3.22
2022-11-21T17:16:44.057Z,-3.31
2022-11-21T17:19:16.542Z,-3.19
2022-11-21T17:21:47.157Z,-3.28
2022-11-21T17:24:15.245Z,-3.46
2022-11-21T17:26:43.222Z,-3.37
2022-11-21T17:29:11.150Z,-3.43
2022-11-21T17:31:39.568Z,-3.55
2022-11-21T17:34:07.527Z,-3.46
2022-11-21T17:36:37.412Z,-3.48
2022-11-21T17:39:07.781Z,-3.55
2022-11-21T17:41:35.253Z,-3.49
2022-11-21T17:44:02.763Z,-3.52
2022-11-21T17:46:30.320Z,-3.51
2022-11-21T17:49:02.189Z,-3.52
2022-11-21T17:51:43.105Z,-3.47
2022-11-21T17:54:14.483Z,-3.48
2022-11-21T17:56:51.411Z,-3.45
2022-11-21T17:59:29.480Z,-3.47
2022-11-21T18:01:57.488Z,-3.48
2022-11-21T18:04:25.094Z,-3.58
2022-11-21T18:06:52.574Z,-3.50
2022-11-21T18:09:20.059Z,-3.52
2022-11-21T18:11:47.899Z,-3.51
2022-11-21T18:14:15.431Z,-3.49
2022-11-21T18:16:49.388Z,-3.50
2022-11-21T18:19:22.394Z,-3.53
2022-11-21T18:21:50.377Z,-3.48
2022-11-21T18:24:19.963Z,-3.48
2022-11-21T18:26:47.494Z,-3.50
2022-11-21T18:32:02.626Z,-3.54
2022-11-21T18:34:30.091Z,-3.62
2022-11-21T18:36:57.538Z,-3.57
2022-11-21T18:39:27.061Z,-3.60
2022-11-21T18:41:54.796Z,-3.63
2022-11-21T18:44:22.917Z,-3.63
2022-11-21T18:46:50.802Z,-3.52
2022-11-21T18:49:19.265Z,-3.63
2022-11-21T18:51:48.128Z,-3.84
2022-11-21T18:54:18.439Z,-3.84
2022-11-21T18:56:47.241Z,-3.94
2022-11-21T18:59:15.128Z,-3.90
2022-11-21T19:01:43.545Z,-3.93
2022-11-21T19:04:11.399Z,-4.03
2022-11-21T19:06:38.845Z,-4.05
2022-11-21T19:09:06.685Z,-4.09
2022-11-21T19:11:34.298Z,-4.14
2022-11-21T19:14:01.808Z,-4.10
2022-11-21T19:16:34.573Z,-4.10
2022-11-21T19:19:33.489Z,-4.12
2022-11-21T19:21:53.065Z,-4.14
2022-11-21T19:24:20.520Z,-4.13
2022-11-21T19:26:50.655Z,-4.18
2022-11-21T19:29:18.870Z,-4.22
2022-11-21T19:31:46.374Z,-4.27
2022-11-21T19:34:16.060Z,-4.20
2022-11-21T19:36:44.477Z,-4.27
2022-11-21T19:39:12.032Z,-4.27
2022-11-21T19:41:40.987Z,-4.39
2022-11-21T19:44:08.464Z,-4.36
2022-11-21T19:46:37.789Z,-4.30
2022-11-21T19:49:06.857Z,-4.34
2022-11-21T19:51:40.555Z,-4.30
2022-11-21T19:54:10.052Z,-4.36
2022-11-21T19:56:37.584Z,-4.44
2022-11-21T19:59:05.608Z,-4.44
2022-11-21T20:01:35.054Z,-4.41
2022-11-21T20:04:04.676Z,-4.39
2022-11-21T20:06:37.615Z,-4.38
2022-11-21T20:09:18.074Z,-4.31
2022-11-21T20:11:47.613Z,-4.39
2022-11-21T20:14:21.450Z,-4.46
2022-11-21T20:16:51.555Z,-4.42
2022-11-21T20:19:21.179Z,-4.46
2022-11-21T20:21:49.002Z,-4.52
2022-11-21T20:24:17.004Z,-4.44
2022-11-21T20:26:45.153Z,-4.40
2022-11-21T20:29:14.028Z,-4.41
2022-11-21T20:31:42.230Z,-4.39
2022-11-21T20:34:13.048Z,-4.32
2022-11-21T20:36:41.202Z,-4.34
2022-11-21T20:39:19.160Z,-4.35
2022-11-21T20:41:47.580Z,-4.40
2022-11-21T20:47:06.081Z,-4.47
2022-11-21T20:49:34.216Z,-4.46
2022-11-21T20:54:48.984Z,-4.44
2022-11-21T20:57:16.462Z,-4.40
2022-11-21T20:59:44.161Z,-4.44
2022-11-21T21:02:15.081Z,-4.43
2022-11-21T21:04:42.806Z,-4.42
2022-11-21T21:07:10.678Z,-4.43
2022-11-21T21:09:38.260Z,-4.46
2022-11-21T21:12:06.013Z,-4.42
2022-11-21T21:14:33.454Z,-4.43
2022-11-21T21:17:00.828Z,-4.43
2022-11-21T21:19:28.637Z,-4.38
2022-11-21T21:21:56.478Z,-4.37
2022-11-21T21:24:23.963Z,-4.43
2022-11-21T21:26:51.332Z,-4.43
2022-11-21T21:29:20.391Z,-4.37
2022-11-21T21:31:51.031Z,-4.42
2022-11-21T21:34:23.252Z,-4.45
2022-11-21T21:36:51.548Z,-4.42
2022-11-21T21:39:19.343Z,-4.39
2022-11-21T21:41:47.672Z,-4.41
2022-11-21T21:44:16.279Z,-4.31
2022-11-21T21:46:44.628Z,-4.30
2022-11-21T21:49:19.027Z,-4.26
2022-11-21T21:51:55.581Z,-4.26
2022-11-21T21:54:31.258Z,-4.22
2022-11-21T21:57:01.232Z,-4.18
2022-11-21T21:59:28.706Z,-4.18
2022-11-21T22:01:56.479Z,-4.30
2022-11-21T22:04:24.220Z,-4.34
2022-11-21T22:06:51.683Z,-4.36
2022-11-21T22:09:22.060Z,-4.35
2022-11-21T22:11:51.866Z,-4.31
2022-11-21T22:14:19.426Z,-4.32
2022-11-21T22:16:46.912Z,-4.38
2022-11-21T22:19:16.648Z,-4.26
2022-11-21T22:21:44.640Z,-4.23
2022-11-21T22:24:25.526Z,-4.17
2022-11-21T22:26:54.210Z,-4.21
2022-11-21T22:29:21.694Z,-4.16
2022-11-21T22:31:49.019Z,-4.25
2022-11-21T22:34:19.436Z,-4.22
2022-11-21T22:36:47.092Z,-4.15
2022-11-21T22:39:15.646Z,-4.14
2022-11-21T22:41:43.059Z,-4.12
2022-11-21T22:44:10.596Z,-4.02
2022-11-21T22:46:38.227Z,-4.02
2022-11-21T22:49:05.577Z,-4.02
2022-11-21T22:51:35.447Z,-3.89
2022-11-21T22:54:02.951Z,-3.96
2022-11-21T22:56:30.435Z,-3.87
2022-11-21T22:59:03.873Z,-3.84
2022-11-21T23:01:34.342Z,-3.82
2022-11-21T23:04:04.165Z,-3.83
2022-11-21T23:06:42.396Z,-3.80
2022-11-21T23:10:14.895Z,-3.62
2022-11-21T23:12:50.941Z,-3.84
2022-11-21T23:15:18.517Z,-3.79
2022-11-21T23:18:27.197Z,-3.46
2022-11-21T23:21:04.388Z,-3.48
2022-11-21T23:24:16.899Z,-3.47
2022-11-21T23:26:44.569Z,-3.48
2022-11-21T23:29:14.870Z,-3.50
2022-11-21T23:32:24.435Z,-3.58
2022-11-21T23:34:52.070Z,-3.54
2022-11-21T23:37:22.728Z,-3.37
2022-11-21T23:39:50.301Z,-3.38
2022-11-21T23:42:17.838Z,-3.38
2022-11-21T23:44:50.766Z,-3.34
2022-11-21T23:47:18.208Z,-3.32
2022-11-21T23:50:22.831Z,-3.26
2022-11-21T23:53:09.193Z,-3.11
2022-11-21T23:55:36.651Z,-3.17
2022-11-21T23:58:22.768Z,-3.14
